sim
Sign-in with your pilot id or email,
or register
Callsign
Passwort

Schedule Details

Flight Number: DLH475 (1)
Departure: Montreal Pierre Elliott Trudeau Airport (CYUL) at 01:15
Arrival: Munich Airport (EDDM) at 08:55
Route: Lufthansa Passenger Schedule. Enter filed route here before submitting Pirep.

Weather Information
Getting current METAR information for CYUL 010447Z 20005KT 15SM -RA SCT040 BKN070 13/10 A2963 RMK SC4AC3 SLP035 DENSITY ALT 300FT
Getting current METAR information for EDDM 010450Z 05002KT 0600 R08L/0900U R08R/0600U FG SCT001 03/03 Q1009 BECMG 0500 BKN001

Schedule Frequency

Route Map